Map

Track Data

SID SEASON NUMBER BASIN SUBBASIN NAME ISO_TIME NATURE LAT LON WMO_WIND WMO_PRES WMO_AGENCY TRACK_TYPE DIST2LAND LANDFALL IFLAG USA_AGENCY USA_ATCF_ID USA_LAT USA_LON USA_RECORD USA_STATUS USA_WIND USA_PRES USA_SSHS USA_R34_NE USA_R34_SE USA_R34_SW USA_R34_NW USA_R50_NE USA_R50_SE USA_R50_SW USA_R50_NW USA_R64_NE USA_R64_SE USA_R64_SW USA_R64_NW USA_POCI USA_ROCI USA_RMW USA_EYE TOKYO_LAT TOKYO_LON TOKYO_GRADE TOKYO_WIND TOKYO_PRES TOKYO_R50_DIR TOKYO_R50_LONG TOKYO_R50_SHORT TOKYO_R30_DIR TOKYO_R30_LONG TOKYO_R30_SHORT TOKYO_LAND CMA_LAT CMA_LON CMA_CAT CMA_WIND CMA_PRES HKO_LAT HKO_LON HKO_CAT HKO_WIND HKO_PRES NEWDELHI_LAT NEWDELHI_LON NEWDELHI_GRADE NEWDELHI_WIND NEWDELHI_PRES NEWDELHI_CI NEWDELHI_DP NEWDELHI_POCI REUNION_LAT REUNION_LON REUNION_TYPE REUNION_WIND REUNION_PRES REUNION_TNUM REUNION_CI REUNION_RMW REUNION_R34_NE REUNION_R34_SE REUNION_R34_SW REUNION_R34_NW REUNION_R50_NE REUNION_R50_SE REUNION_R50_SW REUNION_R50_NW REUNION_R64_NE REUNION_R64_SE REUNION_R64_SW REUNION_R64_NW BOM_LAT BOM_LON BOM_TYPE BOM_WIND BOM_PRES BOM_TNUM BOM_CI BOM_RMW BOM_R34_NE BOM_R34_SE BOM_R34_SW BOM_R34_NW BOM_R50_NE BOM_R50_SE BOM_R50_SW BOM_R50_NW BOM_R64_NE BOM_R64_SE BOM_R64_SW BOM_R64_NW BOM_ROCI BOM_POCI BOM_EYE BOM_POS_METHOD BOM_PRES_METHOD NADI_LAT NADI_LON NADI_CAT NADI_WIND NADI_PRES WELLINGTON_LAT WELLINGTON_LON WELLINGTON_WIND WELLINGTON_PRES DS824_LAT DS824_LON DS824_STAGE DS824_WIND DS824_PRES TD9636_LAT TD9636_LON TD9636_STAGE TD9636_WIND TD9636_PRES TD9635_LAT TD9635_LON TD9635_WIND TD9635_PRES TD9635_ROCI NEUMANN_LAT NEUMANN_LON NEUMANN_CLASS NEUMANN_WIND NEUMANN_PRES MLC_LAT MLC_LON MLC_CLASS MLC_WIND MLC_PRES USA_GUST BOM_GUST BOM_GUST_PER REUNION_GUST REUNION_GUST_PER USA_SEAHGT USA_SEARAD_NE USA_SEARAD_SE USA_SEARAD_SW USA_SEARAD_NW STORM_SPEED STORM_DIR
1994365S06063 1995 119 SI MM BENTHA 1994-12-30 12:00:00 TS -6.00000 63.1000 main 1646 1621 O___________O_ jtwc_sh SH061995 -6.00000 63.1000 15 -1 -6.00000 63.1000 TC 15 6 241
1994365S06063 1995 119 SI MM BENTHA 1994-12-30 15:00:00 TS -6.14253 62.8425 main 1612 1581 P___________P_ SH061995 -6.14253 62.8425 15 -1 -6.14253 62.8425 TC 15 6 239
1994365S06063 1995 119 SI MM BENTHA 1994-12-30 18:00:00 TS -6.30000 62.6000 main 1581 1551 O___________O_ jtwc_sh SH061995 -6.30000 62.6000 15 -1 -6.30000 62.6000 TC 15 6 233
1994365S06063 1995 119 SI MM BENTHA 1994-12-30 21:00:00 TS -6.48499 62.3850 main 1551 1521 P___________P_ SH061995 -6.48499 62.3850 15 -1 -6.48499 62.3850 TC 15 6 225
1994365S06063 1995 119 SI MM BENTHA 1994-12-31 00:00:00 TS -6.70000 62.2000 main 1521 1491 O___________O_ jtwc_sh SH061995 -6.70000 62.2000 15 -1 -6.70000 62.2000 TC 15 6 218
1994365S06063 1995 119 SI MM BENTHA 1994-12-31 03:00:00 TS -6.93499 62.0350 main 1491 1465 P___________P_ SH061995 -6.93499 62.0350 17 -1 -6.93499 62.0350 TC 17 6 211
1994365S06063 1995 119 SI MM BENTHA 1994-12-31 06:00:00 TS -7.20000 61.9000 main 1465 1440 O___________O_ jtwc_sh SH061995 -7.20000 61.9000 20 -1 -7.20000 61.9000 TC 20 6 204
1994365S06063 1995 119 SI MM BENTHA 1994-12-31 09:00:00 TS -7.49250 61.7850 main 1440 1416 P___________P_ SH061995 -7.49250 61.7850 20 -1 -7.49250 61.7850 TC 20 6 198
1994365S06063 1995 119 SI MM BENTHA 1994-12-31 12:00:00 TS -7.80000 61.7000 main 1416 1392 O___________O_ jtwc_sh SH061995 -7.80000 61.7000 20 -1 -7.80000 61.7000 TC 20 6 193
1994365S06063 1995 119 SI MM BENTHA 1994-12-31 15:00:00 TS -8.10000 61.6425 main 1392 1375 P___________P_ SH061995 -8.10000 61.6425 20 -1 -8.10000 61.6425 TC 20 6 189
1994365S06063 1995 119 SI MM BENTHA 1994-12-31 18:00:00 TS -8.40000 61.6000 main 1375 1343 O___________O_ jtwc_sh SH061995 -8.40000 61.6000 20 -1 -8.40000 61.6000 TC 20 6 188
1994365S06063 1995 119 SI MM BENTHA 1994-12-31 21:00:00 TS -8.70000 61.5575 main 1343 1307 P___________P_ SH061995 -8.70000 61.5575 20 -1 -8.70000 61.5575 TC 20 6 189
1994365S06063 1995 119 SI MM BENTHA 1995-01-01 00:00:00 TS -9.00000 61.5000 main 1307 1272 O___________O_ jtwc_sh SH061995 -9.00000 61.5000 20 -1 -9.00000 61.5000 TC 20 6 194
1994365S06063 1995 119 SI MM BENTHA 1995-01-01 03:00:00 TS -9.30750 61.4075 main 1272 1237 P___________P_ SH061995 -9.30750 61.4075 20 -1 -9.30750 61.4075 TC 20 6 198
1994365S06063 1995 119 SI MM BENTHA 1995-01-01 06:00:00 TS -9.60000 61.3000 main 1237 1212 O___________O_ jtwc_sh SH061995 -9.60000 61.3000 20 -1 -9.60000 61.3000 TC 20 6 201
1994365S06063 1995 119 SI MM BENTHA 1995-01-01 09:00:00 TS -9.85750 61.1925 main 1201 1177 P___________P_ SH061995 -9.85750 61.1925 20 -1 -9.85750 61.1925 TC 20 5 202
1994365S06063 1995 119 SI MM BENTHA 1995-01-01 12:00:00 TS -10.1000 61.1000 main 1177 1155 O___________O_ jtwc_sh SH061995 -10.1000 61.1000 20 -1 -10.1000 61.1000 TC 20 5 196
1994365S06063 1995 119 SI MM BENTHA 1995-01-01 15:00:00 TS -10.3575 61.0500 main 1141 1120 P___________P_ SH061995 -10.3575 61.0500 20 -1 -10.3575 61.0500 TC 20 5 191
1994365S06063 1995 119 SI MM BENTHA 1995-01-01 18:00:00 TS -10.6000 61.0000 main 1120 1095 O___________O_ jtwc_sh SH061995 -10.6000 61.0000 20 -1 -10.6000 61.0000 TC 20 5 197
1994365S06063 1995 119 SI MM BENTHA 1995-01-01 21:00:00 TS -10.8150 60.9075 main 1095 1071 P___________P_ SH061995 -10.8150 60.9075 22 -1 -10.8150 60.9075 TC 22 4 206
1994365S06063 1995 119 SI MM BENTHA 1995-01-02 00:00:00 TS -11.0000 60.8000 main 1071 1057 O___________O_ jtwc_sh SH061995 -11.0000 60.8000 25 -1 -11.0000 60.8000 TC 25 4 212
1994365S06063 1995 119 SI MM BENTHA 1995-01-02 03:00:00 TS -11.1500 60.6925 main 1057 1029 P___________P_ SH061995 -11.1500 60.6925 25 -1 -11.1500 60.6925 TC 25 4 222
1994365S06063 1995 119 SI MM BENTHA 1995-01-02 06:00:00 TS -11.3222 60.5000 25 1002 reunion main 1029 1004 O____O______O_ jtwc_sh SH061995 -11.3000 60.6000 25 -1 -11.5000 59.7000 2 25 1002 2.00000 2.00000 -11.3000 60.6000 TC 25 5 223
1994365S06063 1995 119 SI MM BENTHA 1995-01-02 09:00:00 TS -11.5070 60.3555 main 1004 977 P____P______P_ SH061995 -11.5000 60.5500 25 -1 -11.5350 59.5775 2 26 1000 -11.5000 60.5500 TC 25 4 217
1994365S06063 1995 119 SI MM BENTHA 1995-01-02 12:00:00 TS -11.6727 60.2273 28 998 reunion main 977 963 O____O______O_ jtwc_sh SH061995 -11.7000 60.5000 25 -1 -11.6000 59.5000 2 28 998 2.50000 2.50000 -11.7000 60.5000 TC 25 4 219
1994365S06063 1995 119 SI MM BENTHA 1995-01-02 15:00:00 TS -11.8067 60.1075 main 963 939 P____P______P_ SH061995 -11.8500 60.4150 27 -1 -11.7200 59.4925 2 29 996 -11.8500 60.4150 TC 27 4 213
1994365S06063 1995 119 SI MM BENTHA 1995-01-02 18:00:00 TS -11.9667 60.0333 30 995 reunion main 939 914 O____O______O_ jtwc_sh SH061995 -12.0000 60.3000 30 -1 -11.9000 59.5000 2 30 995 2.50000 2.50000 -12.0000 60.3000 TC 30 4 207
1994365S06063 1995 119 SI MM BENTHA 1995-01-02 21:00:00 TS -12.1708 59.9217 main 914 890 P____P______P_ SH061995 -12.1850 60.1575 32 -1 -12.1425 59.4500 2 32 993 -12.1850 60.1575 TC 32 5 208
1994365S06063 1995 119 SI MM BENTHA 1995-01-03 00:00:00 TS -12.4000 59.8000 35 992 reunion main 890 866 O____O______O_ jtwc_sh SH061995 -12.4000 60.0000 35 0 -12.4000 59.4000 3 35 992 3.00000 3.00000 -12.4000 60.0000 TC 35 5 206
1994365S06063 1995 119 SI MM BENTHA 1995-01-03 03:00:00 TS -12.6233 59.6950 main 866 830 P____P______P_ SH061995 -12.6350 59.8425 37 0 -12.6000 59.4000 3 37 990 -12.6350 59.8425 TC 37 5 203
1994365S06063 1995 119 SI MM BENTHA 1995-01-03 06:00:00 TS -12.8667 59.6000 40 988 reunion main 830 806 O____O______O_ jtwc_sh SH061995 -12.9000 59.7000 40 0 -12.8000 59.4000 3 40 988 3.00000 3.00000 -12.9000 59.7000 TC 40 5 199
1994365S06063 1995 119 SI MM BENTHA 1995-01-03 09:00:00 TS -13.1375 59.5117 main 806 771 P____P______P_ SH061995 -13.1925 59.5925 42 0 -13.0275 59.3500 3 40 988 -13.1925 59.5925 TC 42 6 196
1994365S06063 1995 119 SI MM BENTHA 1995-01-03 12:00:00 TS -13.4333 59.4333 40 988 reunion main 771 738 O____O______O_ jtwc_sh SH061995 -13.5000 59.5000 45 0 -13.3000 59.3000 3 40 988 3.00000 3.00000 -13.5000 59.5000 TC 45 6 194
1994365S06063 1995 119 SI MM BENTHA 1995-01-03 15:00:00 TS -13.7475 59.3616 main 738 703 P____P______P_ SH061995 -13.8000 59.3925 45 0 -13.6425 59.2999 3 40 988 -13.8000 59.3925 TC 45 7 192
1994365S06063 1995 119 SI MM BENTHA 1995-01-03 18:00:00 TS -14.0667 59.3000 40 988 reunion main 692 660 O____O______O_ jtwc_sh SH061995 -14.1000 59.3000 45 0 -14.0000 59.3000 3 40 988 3.00000 3.00000 -14.1000 59.3000 TC 45 6 190
1994365S06063 1995 119 SI MM BENTHA 1995-01-03 21:00:00 TS -14.3667 59.2475 main 657 635 P____P______P_ SH061995 -14.3925 59.2350 45 0 -14.3150 59.2725 3 42 986 -14.3925 59.2350 TC 45 6 189
1994365S06063 1995 119 SI MM BENTHA 1995-01-04 00:00:00 TS -14.6667 59.2000 45 984 reunion main 624 589 O____O______O_ jtwc_sh SH061995 -14.7000 59.2000 45 0 -14.6000 59.2000 3 45 984 3.50000 3.50000 -14.7000 59.2000 TC 45 6 189
1994365S06063 1995 119 SI MM BENTHA 1995-01-04 03:00:00 TS -14.9833 59.1450 main 589 557 P____P______P_ SH061995 -15.0500 59.1850 45 0 -14.8500 59.0650 3 45 984 -15.0500 59.1850 TC 45 6 189
1994365S06063 1995 119 SI MM BENTHA 1995-01-04 06:00:00 TS -15.3000 59.1000 45 984 reunion main 557 524 O____O______O_ jtwc_sh SH061995 -15.4000 59.2000 45 0 -15.1000 58.9000 3 45 984 3.50000 3.50000 -15.4000 59.2000 TC 45 6 186
1994365S06063 1995 119 SI MM BENTHA 1995-01-04 09:00:00 TS -15.6025 59.0758 main 524 492 P____P______P_ SH061995 -15.7075 59.2425 45 0 -15.3925 58.7425 3 45 984 -15.7075 59.2425 TC 45 6 184
1994365S06063 1995 119 SI MM BENTHA 1995-01-04 12:00:00 TS -15.9000 59.0667 45 984 reunion main 492 460 O____O______O_ jtwc_sh SH061995 -16.0000 59.3000 45 0 -15.7000 58.6000 3 45 984 3.00000 3.50000 -16.0000 59.3000 TC 45 6 0
1994365S06063 1995 119 SI MM BENTHA 1995-01-04 15:00:00 TS -16.1925 59.0766 main 460 429 P____P______P_ SH061995 -16.2925 59.3649 47 0 -15.9925 58.4999 3 45 984 -16.2925 59.3649 TC 47 6 179
1994365S06063 1995 119 SI MM BENTHA 1995-01-04 18:00:00 TS -16.5000 59.0667 45 984 reunion main 429 393 O____O______O_ jtwc_sh SH061995 -16.6000 59.4000 50 0 -16.3000 58.4000 3 45 984 3.00000 3.50000 -16.6000 59.4000 TC 50 7 186
1994365S06063 1995 119 SI MM BENTHA 1995-01-04 21:00:00 TS -16.8525 59.0058 main 383 348 P____P______P_ SH061995 -16.9500 59.3800 50 0 -16.6575 58.2575 3 42 986 -16.9500 59.3800 TC 50 7 193
1994365S06063 1995 119 SI MM BENTHA 1995-01-05 00:00:00 TS -17.2000 58.9000 40 988 reunion main 348 313 O____O______O_ jtwc_sh SH061995 -17.3000 59.3000 50 0 -17.0000 58.1000 3 40 988 3.00000 3.00000 -17.3000 59.3000 TC 50 7 198
1994365S06063 1995 119 SI MM BENTHA 1995-01-05 03:00:00 TS -17.5083 58.7824 main 313 274 P____P______P_ SH061995 -17.6224 59.1949 52 0 -17.2800 57.9574 3 37 990 -17.6224 59.1949 TC 52 6 207
1994365S06063 1995 119 SI MM BENTHA 1995-01-05 06:00:00 TS -17.7667 58.6000 35 992 reunion main 274 243 O____O______O_ jtwc_sh SH061995 -17.9000 59.0000 55 0 -17.5000 57.8000 3 35 992 3.00000 3.00000 -17.9000 59.0000 TC 55 6 224
1994365S06063 1995 119 SI MM BENTHA 1995-01-05 09:00:00 TS -17.9725 58.3200 main 243 225 P____P______P_ SH061995 -18.1226 58.6800 55 0 -17.6725 57.6000 3 35 992 -18.1226 58.6800 TC 55 7 237
1994365S06063 1995 119 SI MM BENTHA 1995-01-05 12:00:00 TS -18.1333 58.0000 35 992 reunion main 225 201 O____O______O_ jtwc_sh SH061995 -18.3000 58.3000 55 0 -17.8000 57.4000 3 35 992 2.50000 3.00000 -18.3000 58.3000 TC 55 6 241
1994365S06063 1995 119 SI MM BENTHA 1995-01-05 15:00:00 TS -18.2840 57.7341 main 201 190 P____P______P_ SH061995 -18.4798 57.9650 52 0 -17.8924 57.2723 3 35 992 -18.4798 57.9650 TC 52 6 244
1994365S06063 1995 119 SI MM BENTHA 1995-01-05 18:00:00 TS -18.4000 57.4333 35 992 reunion main 190 180 O____O______O_ jtwc_sh SH061995 -18.6000 57.6000 50 0 -18.0000 57.1000 3 35 992 2.00000 3.00000 -18.6000 57.6000 TC 50 7 251
1994365S06063 1995 119 SI MM BENTHA 1995-01-05 21:00:00 TS -18.4990 57.0592 main 183 183 P____P______P_ SH061995 -18.6374 57.1800 45 0 -18.2223 56.8178 3 32 993 -18.6374 57.1800 TC 45 8 260
1994365S06063 1995 119 SI MM BENTHA 1995-01-06 00:00:00 TS -18.5333 56.6000 30 995 reunion main 202 202 O____O______O_ jtwc_sh SH061995 -18.6000 56.7000 40 0 -18.4000 56.4000 2 30 995 2.00000 2.50000 -18.6000 56.7000 TC 40 10 268
1994365S06063 1995 119 SI MM BENTHA 1995-01-06 03:00:00 TS -18.5250 56.0511 main 231 231 P____P______P_ SH061995 -18.5449 56.1727 35 0 -18.4853 55.8080 2 27 997 -18.5449 56.1727 TC 35 11 279
1994365S06063 1995 119 SI MM BENTHA 1995-01-06 06:00:00 TS -18.3600 55.4400 25 1000 reunion main 290 290 O____O______O_ jtwc_sh SH061995 -18.4000 55.6000 30 -1 -18.3000 55.2000 2 25 1000 1.50000 2.00000 -18.4000 55.6000 TC 30 13 299
1994365S06063 1995 119 SI MM BENTHA 1995-01-06 09:00:00 TS -17.9014 54.8529 main 349 349 P____P______P_ SH061995 -18.1354 55.0044 27 -1 -17.6674 54.7014 2 22 1001 -18.1354 55.0044 TC 27 15 318
1994365S06063 1995 119 SI MM BENTHA 1995-01-06 12:00:00 TS -17.2600 54.4000 20 1002 reunion main 424 424 O____O______O_ jtwc_sh SH061995 -17.8000 54.4000 25 -1 -16.9000 54.4000 6 20 1002 1.50000 2.00000 -17.8000 54.4000 TC 25 17 344
1994365S06063 1995 119 SI MM BENTHA 1995-01-06 15:00:00 TS -16.3276 54.3708 main 429 422 _____P________ SH061995 -1 -16.3276 54.3708 6 1003 TC 14 4
1994365S06063 1995 119 SI MM BENTHA 1995-01-06 18:00:00 TS -15.9000 54.5000 1004 reunion main 432 _____O________ -1 -15.9000 54.5000 6 1004 9.90000 9 16

About IBTrACS Database

This database is a web-friendly format of International Best Track Archive for Climate Stewardship (IBTrACS), a global best track data archive curated by NOAA dating back to 1842.

Updated: 2021-10-08